createdAt,value
2024-04-23T00:01:57.848Z,74.70
2024-04-23T00:04:25.092Z,79.00
2024-04-23T00:07:01.887Z,76.40
2024-04-23T00:09:29.543Z,73.80
2024-04-23T00:11:56.702Z,75.70
2024-04-23T00:14:23.818Z,74.40
2024-04-23T00:17:05.429Z,74.70
2024-04-23T00:19:33.588Z,75.90
2024-04-23T00:22:00.955Z,76.60
2024-04-23T00:24:28.053Z,78.50
2024-04-23T00:27:02.385Z,78.10
2024-04-23T00:29:30.643Z,80.60
2024-04-23T00:31:57.946Z,82.10
2024-04-23T00:34:25.440Z,84.70
2024-04-23T00:37:00.084Z,85.30
2024-04-23T00:39:27.942Z,86.90
2024-04-23T00:41:55.159Z,88.20
2024-04-23T00:44:22.604Z,89.50
2024-04-23T00:46:50.675Z,90.40
2024-04-23T00:49:19.201Z,90.40
2024-04-23T00:51:52.277Z,90.10
2024-04-23T00:54:24.558Z,90.40
2024-04-23T00:56:55.298Z,89.90
2024-04-23T00:59:22.616Z,90.30
2024-04-23T01:01:51.611Z,90.00
2024-04-23T01:04:18.829Z,90.20
2024-04-23T01:06:50.932Z,90.30
2024-04-23T01:09:20.274Z,89.40
2024-04-23T01:11:49.182Z,90.60
2024-04-23T01:14:16.750Z,90.60
2024-04-23T01:16:47.172Z,91.40
2024-04-23T01:19:44.258Z,91.60
2024-04-23T01:22:22.386Z,91.00
2024-04-23T01:25:08.734Z,91.70
2024-04-23T01:27:37.223Z,91.60
2024-04-23T01:30:07.808Z,92.30
2024-04-23T01:32:39.331Z,93.50
2024-04-23T01:35:11.507Z,93.70
2024-04-23T01:37:42.753Z,93.20
2024-04-23T01:40:11.959Z,92.70
2024-04-23T01:42:40.718Z,92.50
2024-04-23T01:45:10.660Z,92.50
2024-04-23T01:47:37.864Z,92.70
2024-04-23T01:50:06.023Z,92.70
2024-04-23T01:52:33.363Z,94.10
2024-04-23T01:55:00.555Z,95.00
2024-04-23T01:57:27.607Z,95.40
2024-04-23T02:00:05.296Z,95.90
2024-04-23T02:02:38.134Z,96.40
2024-04-23T02:05:08.183Z,96.70
2024-04-23T02:07:35.771Z,97.60
2024-04-23T02:10:04.506Z,98.20
2024-04-23T02:12:31.778Z,97.40
2024-04-23T02:14:58.828Z,96.90
2024-04-23T02:17:26.102Z,97.30
2024-04-23T02:19:53.199Z,97.80
2024-04-23T02:22:20.746Z,97.60
2024-04-23T02:24:47.794Z,98.30
2024-04-23T02:27:14.840Z,98.20
2024-04-23T02:29:42.259Z,98.50
2024-04-23T02:32:09.352Z,98.10
2024-04-23T02:34:36.475Z,98.40
2024-04-23T02:37:03.535Z,98.70
2024-04-23T02:39:30.622Z,99.30
2024-04-23T02:41:57.757Z,99.60
2024-04-23T02:44:24.797Z,99.90
2024-04-23T02:46:52.301Z,99.90
2024-04-23T02:49:20.170Z,99.90
2024-04-23T02:51:51.349Z,99.70
2024-04-23T02:54:18.413Z,99.30
2024-04-23T02:56:48.422Z,99.80
2024-04-23T02:59:19.832Z,99.80
2024-04-23T03:01:47.246Z,99.90
2024-04-23T03:04:14.511Z,99.90
2024-04-23T03:06:41.635Z,99.90
2024-04-23T03:09:08.659Z,99.90
2024-04-23T03:11:35.811Z,99.90
2024-04-23T03:14:02.933Z,99.90
2024-04-23T03:16:29.995Z,99.90
2024-04-23T03:18:57.056Z,99.90
2024-04-23T03:21:24.116Z,99.90
2024-04-23T03:23:51.104Z,99.90
2024-04-23T03:26:18.107Z,99.90
2024-04-23T03:28:45.145Z,99.90
2024-04-23T03:31:12.325Z,99.90
2024-04-23T03:33:39.321Z,99.90
2024-04-23T03:36:07.396Z,99.90
2024-04-23T03:38:34.583Z,99.90
2024-04-23T03:41:01.855Z,99.90
2024-04-23T03:43:28.974Z,99.90
2024-04-23T03:45:56.042Z,99.90
2024-04-23T03:48:23.500Z,99.90
2024-04-23T03:50:50.575Z,99.90
2024-04-23T03:53:17.565Z,99.90
2024-04-23T03:55:44.661Z,99.90
2024-04-23T03:58:11.739Z,99.90
2024-04-23T04:00:38.735Z,99.90
2024-04-23T04:03:25.021Z,99.90
2024-04-23T04:06:10.098Z,99.90
2024-04-23T04:08:41.354Z,99.90
2024-04-23T04:11:09.014Z,99.90
2024-04-23T04:13:40.904Z,99.90
2024-04-23T04:16:10.942Z,99.90
2024-04-23T04:18:38.478Z,99.90
2024-04-23T04:21:06.779Z,99.90
2024-04-23T04:23:34.379Z,99.90
2024-04-23T04:26:01.634Z,99.90
2024-04-23T04:28:28.773Z,99.90
2024-04-23T04:30:55.916Z,99.90
2024-04-23T04:33:23.245Z,99.90
2024-04-23T04:35:50.394Z,99.90
2024-04-23T04:38:17.637Z,99.90
2024-04-23T04:40:44.733Z,99.90
2024-04-23T04:43:11.739Z,99.90
2024-04-23T04:45:38.814Z,99.90
2024-04-23T04:48:06.418Z,99.90
2024-04-23T04:50:33.474Z,99.90
2024-04-23T04:53:00.582Z,99.90
2024-04-23T04:55:31.692Z,99.90
2024-04-23T04:57:59.240Z,99.90
2024-04-23T05:00:26.418Z,99.90
2024-04-23T05:02:53.530Z,99.90
2024-04-23T05:05:20.603Z,99.90
2024-04-23T05:07:47.672Z,99.90
2024-04-23T05:10:14.972Z,99.90
2024-04-23T05:12:42.031Z,99.90
2024-04-23T05:15:09.202Z,99.90
2024-04-23T05:17:36.389Z,99.90
2024-04-23T05:20:04.091Z,99.90
2024-04-23T05:22:31.312Z,99.90
2024-04-23T05:24:58.461Z,99.90
2024-04-23T05:27:25.583Z,99.90
2024-04-23T05:29:55.501Z,99.90
2024-04-23T05:32:44.447Z,99.90
2024-04-23T05:35:14.039Z,99.90
2024-04-23T05:37:41.817Z,99.90
2024-04-23T05:40:09.425Z,99.90
2024-04-23T05:42:36.506Z,99.90
2024-04-23T05:45:03.899Z,99.90
2024-04-23T05:47:31.158Z,99.90
2024-04-23T05:50:54.114Z,99.90
2024-04-23T05:54:36.600Z,99.90
2024-04-23T05:57:23.043Z,99.90
2024-04-23T05:59:50.109Z,99.90
2024-04-23T06:02:17.090Z,99.90
2024-04-23T06:04:44.165Z,99.90
2024-04-23T06:07:11.297Z,99.90
2024-04-23T06:09:38.336Z,99.90
2024-04-23T06:12:05.625Z,99.90
2024-04-23T06:14:32.647Z,99.90
2024-04-23T06:17:31.927Z,99.90
2024-04-23T06:20:07.190Z,99.90
2024-04-23T06:22:37.725Z,99.90
2024-04-23T06:25:06.934Z,97.80
2024-04-23T06:27:36.218Z,97.10
2024-04-23T06:30:16.541Z,97.30
2024-04-23T06:32:44.099Z,95.50
2024-04-23T06:35:14.546Z,92.40
2024-04-23T06:37:41.705Z,87.30
2024-04-23T06:40:10.609Z,90.30
2024-04-23T06:42:39.346Z,84.20
2024-04-23T06:45:07.514Z,79.50
2024-04-23T06:47:35.969Z,77.50
2024-04-23T06:50:04.586Z,70.50
2024-04-23T06:52:31.930Z,72.80
2024-04-23T06:55:02.250Z,62.60
2024-04-23T06:57:29.871Z,47.70
2024-04-23T06:59:57.112Z,37.80
2024-04-23T07:02:25.591Z,34.10
2024-04-23T07:04:52.922Z,48.10
2024-04-23T07:07:20.037Z,19.90
2024-04-23T07:09:47.063Z,1.00
2024-04-23T07:12:14.031Z,1.00
2024-04-23T07:14:41.405Z,1.00
2024-04-23T07:17:08.860Z,1.00
2024-04-23T07:19:35.993Z,1.00
2024-04-23T07:22:03.158Z,1.00
2024-04-23T07:24:30.294Z,1.00
2024-04-23T07:26:57.301Z,99.90
2024-04-23T07:29:24.478Z,99.90
2024-04-23T07:31:51.731Z,99.90
2024-04-23T07:34:18.773Z,99.90
2024-04-23T07:36:47.092Z,1.00
2024-04-23T07:39:15.067Z,44.80
2024-04-23T07:41:42.699Z,97.00
2024-04-23T07:44:10.184Z,99.90
2024-04-23T07:46:37.597Z,99.90
2024-04-23T07:49:04.852Z,99.90
2024-04-23T07:51:33.796Z,99.90
2024-04-23T07:54:01.220Z,99.90
2024-04-23T07:56:28.329Z,99.90
2024-04-23T07:58:55.559Z,99.90
2024-04-23T08:01:22.652Z,99.90
2024-04-23T08:03:49.698Z,99.90
2024-04-23T08:06:16.800Z,99.90
2024-04-23T08:08:43.913Z,99.90
2024-04-23T08:11:11.116Z,99.10
2024-04-23T08:13:38.300Z,97.30
2024-04-23T08:16:05.927Z,97.80
2024-04-23T08:18:35.032Z,96.30
2024-04-23T08:21:06.863Z,93.70
2024-04-23T08:23:34.820Z,93.90
2024-04-23T08:26:10.168Z,92.70
2024-04-23T08:28:37.847Z,93.70
2024-04-23T08:31:05.542Z,93.20
2024-04-23T08:33:35.360Z,94.50
2024-04-23T08:36:02.671Z,93.50
2024-04-23T08:38:30.961Z,92.80
2024-04-23T08:40:58.494Z,92.10
2024-04-23T08:43:36.094Z,90.50
2024-04-23T08:46:04.874Z,89.00
2024-04-23T08:48:34.985Z,89.60
2024-04-23T08:51:04.431Z,90.10
2024-04-23T08:53:33.913Z,90.80
2024-04-23T08:56:07.136Z,91.20
2024-04-23T08:58:38.595Z,90.80
2024-04-23T09:01:08.376Z,90.30
2024-04-23T09:03:48.469Z,91.00
2024-04-23T09:06:16.917Z,90.70
2024-04-23T09:08:46.180Z,90.80
2024-04-23T09:11:15.290Z,89.10
2024-04-23T09:13:42.802Z,91.80
2024-04-23T09:16:10.227Z,87.70
2024-04-23T09:18:37.829Z,88.30
2024-04-23T09:21:05.679Z,85.90
2024-04-23T09:23:32.795Z,83.20
2024-04-23T09:26:05.512Z,80.60
2024-04-23T09:28:36.255Z,80.00
2024-04-23T09:31:04.927Z,82.90
2024-04-23T09:33:33.421Z,84.70
2024-04-23T09:36:08.686Z,82.90
2024-04-23T09:38:41.313Z,82.20
2024-04-23T09:41:11.300Z,83.60
2024-04-23T09:43:39.230Z,82.20
2024-04-23T09:46:09.930Z,84.50
2024-04-23T09:48:40.138Z,79.80
2024-04-23T09:51:08.550Z,80.80
2024-04-23T09:53:38.309Z,82.30
2024-04-23T09:56:11.363Z,84.50
2024-04-23T09:58:38.484Z,83.00
2024-04-23T10:01:08.372Z,81.80
2024-04-23T10:03:42.108Z,79.20
2024-04-23T10:06:12.183Z,80.30
2024-04-23T10:08:53.159Z,78.50
2024-04-23T10:11:37.761Z,76.10
2024-04-23T10:14:41.123Z,73.40
2024-04-23T10:17:42.790Z,75.10
2024-04-23T10:20:12.318Z,77.10
2024-04-23T10:22:39.717Z,77.40
2024-04-23T10:25:08.159Z,76.90
2024-04-23T10:27:38.798Z,75.50
2024-04-23T10:30:08.061Z,77.10
2024-04-23T10:32:35.516Z,78.60
2024-04-23T10:35:05.747Z,77.70
2024-04-23T10:37:38.021Z,77.10
2024-04-23T10:40:07.516Z,78.20
2024-04-23T10:42:34.734Z,78.60
2024-04-23T10:45:02.784Z,78.30
2024-04-23T10:47:29.969Z,78.80
2024-04-23T10:49:57.078Z,78.10
2024-04-23T10:52:24.180Z,76.60
2024-04-23T10:54:51.567Z,78.60
2024-04-23T10:57:19.191Z,79.20
2024-04-23T10:59:46.404Z,75.10
2024-04-23T11:02:15.548Z,75.30
2024-04-23T11:04:48.376Z,71.00
2024-04-23T11:07:36.177Z,69.10
2024-04-23T11:10:07.653Z,67.60
2024-04-23T11:12:37.760Z,67.80
2024-04-23T11:15:17.737Z,68.40
2024-04-23T11:17:46.532Z,63.70
2024-04-23T11:20:14.991Z,66.00
2024-04-23T11:23:00.537Z,63.10
2024-04-23T11:25:35.715Z,65.30
2024-04-23T11:28:05.966Z,64.20
2024-04-23T11:30:33.880Z,65.00
2024-04-23T11:33:04.290Z,66.70
2024-04-23T11:35:34.051Z,67.10
2024-04-23T11:38:01.104Z,66.70
2024-04-23T11:40:28.364Z,60.50
2024-04-23T11:42:55.641Z,59.10
2024-04-23T11:45:22.770Z,58.20
2024-04-23T11:47:55.416Z,60.60
2024-04-23T11:50:25.456Z,61.80
2024-04-23T11:52:52.616Z,61.40
2024-04-23T11:55:20.932Z,62.90
2024-04-23T11:57:49.104Z,63.60
2024-04-23T12:00:17.319Z,60.30
2024-04-23T12:02:44.911Z,60.80
2024-04-23T12:05:12.517Z,61.70
2024-04-23T12:07:41.343Z,60.40
2024-04-23T12:10:10.402Z,57.80
2024-04-23T12:12:42.653Z,58.00
2024-04-23T12:15:10.864Z,56.20
2024-04-23T12:17:41.198Z,56.20
2024-04-23T12:20:12.846Z,55.30
2024-04-23T12:22:45.976Z,54.00
2024-04-23T12:25:15.769Z,56.00
2024-04-23T12:27:47.991Z,54.80
2024-04-23T12:30:20.265Z,55.80
2024-04-23T12:32:51.376Z,56.40
2024-04-23T12:35:21.979Z,54.70
2024-04-23T12:37:50.024Z,56.00
2024-04-23T12:40:18.201Z,56.80
2024-04-23T12:42:47.324Z,56.20
2024-04-23T12:45:14.797Z,55.30
2024-04-23T12:47:42.215Z,55.60
2024-04-23T12:50:09.605Z,55.60
2024-04-23T12:52:37.336Z,58.80
2024-04-23T12:55:05.245Z,58.90
2024-04-23T12:57:32.448Z,59.80
2024-04-23T12:59:59.450Z,57.60
2024-04-23T13:02:26.605Z,60.70
2024-04-23T13:04:53.776Z,59.40
2024-04-23T13:07:21.814Z,59.20
2024-04-23T13:09:48.912Z,60.00
2024-04-23T13:12:15.999Z,59.70
2024-04-23T13:14:43.088Z,59.50
2024-04-23T13:17:10.249Z,59.00
2024-04-23T13:19:37.512Z,57.10
2024-04-23T13:22:08.641Z,57.80
2024-04-23T13:24:35.749Z,57.00
2024-04-23T13:27:02.758Z,55.60
2024-04-23T13:29:32.012Z,57.10
2024-04-23T13:32:01.062Z,58.20
2024-04-23T13:34:28.450Z,58.70
2024-04-23T13:36:55.566Z,58.70
2024-04-23T13:39:23.375Z,60.40
2024-04-23T13:41:51.892Z,61.50
2024-04-23T13:44:18.968Z,61.60
2024-04-23T13:46:45.995Z,63.50
2024-04-23T13:49:15.778Z,63.40
2024-04-23T13:51:43.039Z,63.80
2024-04-23T13:54:10.125Z,64.70
2024-04-23T13:56:37.253Z,64.60
2024-04-23T13:59:04.663Z,64.70
2024-04-23T14:01:32.703Z,65.20
2024-04-23T14:04:00.079Z,64.00
2024-04-23T14:06:27.167Z,64.80
2024-04-23T14:08:54.308Z,65.50
2024-04-23T14:11:21.385Z,67.40
2024-04-23T14:13:48.454Z,65.90
2024-04-23T14:16:15.724Z,66.90
2024-04-23T14:18:43.148Z,65.90
2024-04-23T14:21:10.435Z,66.30
2024-04-23T14:23:39.359Z,65.50
2024-04-23T14:26:06.617Z,63.40
2024-04-23T14:28:35.404Z,66.00
2024-04-23T14:31:05.962Z,65.20
2024-04-23T14:33:34.028Z,64.00
2024-04-23T14:36:04.386Z,62.10
2024-04-23T14:38:32.370Z,60.70
2024-04-23T14:41:01.316Z,60.60
2024-04-23T14:43:29.003Z,62.20
2024-04-23T14:45:56.536Z,59.80
2024-04-23T14:48:24.743Z,62.80
2024-04-23T14:50:52.316Z,61.60
2024-04-23T14:53:21.753Z,62.20
2024-04-23T14:56:05.362Z,62.10
2024-04-23T14:58:33.958Z,62.50
2024-04-23T15:01:02.389Z,62.90
2024-04-23T15:03:32.650Z,63.50
2024-04-23T15:06:04.662Z,63.20
2024-04-23T15:08:32.798Z,62.70
2024-04-23T15:10:59.906Z,63.70
2024-04-23T15:13:27.009Z,61.90
2024-04-23T15:16:02.048Z,61.10
2024-04-23T15:18:37.037Z,61.90
2024-04-23T15:21:05.846Z,61.20
2024-04-23T15:23:33.902Z,59.00
2024-04-23T15:26:01.677Z,58.30
2024-04-23T15:28:31.822Z,57.80
2024-04-23T15:31:06.856Z,58.50
2024-04-23T15:33:39.702Z,59.40
2024-04-23T15:36:13.277Z,61.30
2024-04-23T15:38:49.319Z,61.10
2024-04-23T15:41:17.761Z,60.70
2024-04-23T15:43:48.457Z,61.40
2024-04-23T15:46:15.755Z,61.90
2024-04-23T15:48:43.148Z,61.70
2024-04-23T15:51:13.168Z,63.70
2024-04-23T15:53:40.195Z,63.50
2024-04-23T15:56:08.538Z,62.30
2024-04-23T15:58:35.685Z,63.60
2024-04-23T16:01:04.172Z,64.10
2024-04-23T16:03:35.012Z,64.00
2024-04-23T16:06:03.953Z,64.00
2024-04-23T16:08:32.631Z,64.10
2024-04-23T16:11:01.924Z,64.70
2024-04-23T16:13:30.049Z,64.90
2024-04-23T16:15:58.879Z,64.80
2024-04-23T16:18:30.497Z,65.10
2024-04-23T16:21:02.347Z,64.10
2024-04-23T16:23:29.698Z,65.30
2024-04-23T16:26:02.354Z,64.30
2024-04-23T16:28:29.816Z,63.80
2024-04-23T16:31:04.909Z,64.20
2024-04-23T16:33:37.412Z,65.00
2024-04-23T16:36:09.375Z,64.30
2024-04-23T16:38:38.096Z,65.80
2024-04-23T16:41:08.394Z,64.30
2024-04-23T16:43:36.674Z,63.50
2024-04-23T16:46:09.714Z,63.50
2024-04-23T16:48:37.985Z,63.30
2024-04-23T16:51:07.432Z,62.00
2024-04-23T16:53:35.167Z,63.70
2024-04-23T16:56:02.291Z,63.20
2024-04-23T16:58:29.443Z,63.60
2024-04-23T17:00:56.538Z,64.20
2024-04-23T17:03:24.099Z,65.60
2024-04-23T17:05:51.904Z,65.90
2024-04-23T17:08:19.067Z,64.40
2024-04-23T17:10:47.607Z,65.90
2024-04-23T17:13:15.219Z,66.00
2024-04-23T17:15:43.843Z,65.90
2024-04-23T17:18:11.248Z,65.60
2024-04-23T17:20:38.423Z,65.90
2024-04-23T17:23:05.596Z,65.60
2024-04-23T17:25:36.861Z,65.50
2024-04-23T17:28:04.650Z,65.50
2024-04-23T17:30:31.791Z,65.90
2024-04-23T17:32:58.911Z,66.70
2024-04-23T17:35:26.035Z,67.20
2024-04-23T17:37:53.166Z,67.40
2024-04-23T17:40:20.288Z,67.90
2024-04-23T17:42:47.498Z,67.80
2024-04-23T17:45:15.123Z,68.60
2024-04-23T17:47:42.359Z,68.30
2024-04-23T17:50:11.727Z,67.50
2024-04-23T17:52:39.419Z,68.30
2024-04-23T17:55:08.487Z,68.10
2024-04-23T17:57:36.078Z,68.90
2024-04-23T18:00:06.417Z,69.30
2024-04-23T18:02:40.049Z,69.70
2024-04-23T18:05:08.100Z,69.50
2024-04-23T18:07:35.291Z,69.20
2024-04-23T18:10:02.949Z,67.80
2024-04-23T18:12:30.369Z,69.00
2024-04-23T18:14:58.091Z,69.30
2024-04-23T18:17:25.443Z,69.40
2024-04-23T18:19:52.780Z,69.50
2024-04-23T18:22:19.937Z,69.80
2024-04-23T18:24:46.940Z,70.00
2024-04-23T18:27:16.758Z,70.80
2024-04-23T18:29:43.798Z,71.50
2024-04-23T18:32:11.661Z,70.90
2024-04-23T18:34:38.873Z,71.50
2024-04-23T18:37:06.091Z,72.30
2024-04-23T18:39:33.231Z,72.30
2024-04-23T18:42:01.141Z,73.20
2024-04-23T18:44:28.193Z,72.30
2024-04-23T18:46:55.240Z,73.40
2024-04-23T18:49:22.370Z,73.80
2024-04-23T18:51:49.786Z,72.00
2024-04-23T18:54:17.274Z,71.50
2024-04-23T18:56:44.767Z,70.50
2024-04-23T18:59:12.027Z,71.00
2024-04-23T19:01:41.561Z,70.90
2024-04-23T19:04:08.849Z,70.60
2024-04-23T19:06:35.836Z,71.00
2024-04-23T19:09:03.099Z,71.10
2024-04-23T19:11:32.604Z,71.70
2024-04-23T19:14:10.765Z,72.30
2024-04-23T19:16:43.830Z,73.40
2024-04-23T19:19:11.403Z,74.10
2024-04-23T19:21:38.562Z,74.60
2024-04-23T19:24:06.303Z,74.10
2024-04-23T19:26:33.906Z,75.20
2024-04-23T19:29:01.115Z,75.50
2024-04-23T19:31:28.207Z,75.00
2024-04-23T19:33:55.522Z,75.10
2024-04-23T19:36:28.561Z,75.50
2024-04-23T19:38:55.644Z,75.30
2024-04-23T19:41:22.702Z,75.80
2024-04-23T19:43:53.307Z,76.70
2024-04-23T19:46:26.570Z,76.50
2024-04-23T19:48:57.050Z,77.10
2024-04-23T19:51:25.096Z,77.30
2024-04-23T19:53:52.270Z,78.60
2024-04-23T19:56:55.827Z,82.90
2024-04-23T19:59:24.592Z,87.00
2024-04-23T20:01:51.907Z,91.90
2024-04-23T20:04:18.977Z,1.00
2024-04-23T20:06:46.309Z,57.00
2024-04-23T20:09:15.728Z,99.90
2024-04-23T20:11:43.600Z,99.90
2024-04-23T20:14:11.003Z,1.00
2024-04-23T20:16:38.070Z,1.00
2024-04-23T20:19:05.226Z,1.00
2024-04-23T20:21:32.283Z,1.00
2024-04-23T20:24:00.253Z,1.00
2024-04-23T20:26:27.408Z,1.00
2024-04-23T20:28:54.761Z,1.00
2024-04-23T20:31:22.423Z,1.00
2024-04-23T20:33:50.135Z,1.00
2024-04-23T20:36:17.471Z,1.00
2024-04-23T20:38:44.620Z,11.40
2024-04-23T20:41:11.967Z,5.10
2024-04-23T20:43:39.195Z,10.00
2024-04-23T20:46:09.620Z,35.80
2024-04-23T20:48:36.977Z,41.80
2024-04-23T20:51:04.961Z,47.00
2024-04-23T20:53:32.159Z,48.10
2024-04-23T20:56:07.096Z,65.80
2024-04-23T20:58:34.888Z,68.30
2024-04-23T21:01:09.745Z,71.40
2024-04-23T21:03:38.963Z,75.50
2024-04-23T21:06:14.110Z,85.80
2024-04-23T21:08:42.581Z,85.40
2024-04-23T21:11:16.398Z,88.40
2024-04-23T21:13:45.032Z,91.30
2024-04-23T21:16:14.786Z,92.40
2024-04-23T21:18:43.578Z,93.20
2024-04-23T21:21:12.261Z,95.30
2024-04-23T21:23:39.494Z,95.70
2024-04-23T21:26:07.074Z,97.60
2024-04-23T21:28:34.130Z,95.90
2024-04-23T21:31:01.951Z,99.40
2024-04-23T21:33:29.497Z,98.80
2024-04-23T21:36:01.766Z,99.90
2024-04-23T21:38:28.884Z,99.90
2024-04-23T21:40:56.140Z,99.90
2024-04-23T21:43:23.159Z,99.90
2024-04-23T21:45:50.299Z,99.90
2024-04-23T21:48:17.379Z,99.90
2024-04-23T21:50:44.473Z,99.90
2024-04-23T21:53:11.904Z,99.90
2024-04-23T21:55:38.936Z,99.90
2024-04-23T21:58:05.933Z,99.90
2024-04-23T22:00:32.957Z,99.90
2024-04-23T22:03:00.100Z,99.90
2024-04-23T22:05:27.329Z,99.90
2024-04-23T22:07:54.419Z,99.90
2024-04-23T22:10:24.274Z,99.90
2024-04-23T22:12:52.082Z,99.90
2024-04-23T22:15:28.110Z,99.90
2024-04-23T22:18:02.959Z,99.90
2024-04-23T22:20:30.152Z,99.90
2024-04-23T22:22:57.283Z,99.90
2024-04-23T22:25:24.311Z,99.90
2024-04-23T22:27:51.387Z,99.90
2024-04-23T22:30:18.679Z,99.90
2024-04-23T22:32:45.811Z,99.90
2024-04-23T22:35:13.042Z,99.90
2024-04-23T22:37:40.119Z,99.90
2024-04-23T22:40:07.819Z,99.90
2024-04-23T22:42:39.080Z,99.90
2024-04-23T22:45:08.166Z,99.90
2024-04-23T22:47:35.751Z,99.90
2024-04-23T22:50:03.007Z,99.90
2024-04-23T22:52:29.994Z,99.90
2024-04-23T22:54:57.029Z,99.90
2024-04-23T22:57:24.137Z,99.90
2024-04-23T22:59:51.143Z,99.90
2024-04-23T23:02:18.281Z,99.90
2024-04-23T23:04:45.422Z,99.00
2024-04-23T23:07:12.526Z,96.90
2024-04-23T23:09:39.843Z,97.60
2024-04-23T23:12:07.383Z,96.30
2024-04-23T23:14:34.558Z,97.10
2024-04-23T23:17:01.688Z,95.80
2024-04-23T23:19:28.755Z,97.60
2024-04-23T23:21:56.356Z,95.90
2024-04-23T23:24:23.526Z,95.60
2024-04-23T23:26:50.530Z,96.40
2024-04-23T23:29:17.624Z,96.50
2024-04-23T23:31:44.797Z,95.70
2024-04-23T23:34:11.901Z,96.80
2024-04-23T23:36:38.975Z,95.10
2024-04-23T23:39:06.111Z,95.20
2024-04-23T23:41:33.318Z,95.10
2024-04-23T23:44:00.496Z,95.80
2024-04-23T23:46:27.650Z,94.40
2024-04-23T23:48:55.032Z,96.40
2024-04-23T23:51:22.071Z,95.80
2024-04-23T23:53:49.112Z,95.40
2024-04-23T23:56:16.184Z,96.20
2024-04-23T23:58:43.218Z,95.00
